createdAt,value
2019-02-12T00:00:06.863Z,3.94
2019-02-12T00:01:07.069Z,3.88
2019-02-12T00:03:06.847Z,3.94
2019-02-12T00:04:07.038Z,3.87
2019-02-12T00:05:07.255Z,3.88
2019-02-12T00:07:06.841Z,3.87
2019-02-12T00:08:07.021Z,3.95
2019-02-12T00:09:07.546Z,3.95
2019-02-12T00:10:07.033Z,3.88
2019-02-12T00:11:06.781Z,3.87
2019-02-12T00:12:07.012Z,3.92
2019-02-12T00:13:07.401Z,3.91
2019-02-12T00:14:06.788Z,3.94
2019-02-12T00:17:06.964Z,3.83
2019-02-12T00:18:06.784Z,3.87
2019-02-12T00:19:06.949Z,3.78
2019-02-12T00:20:06.947Z,3.77
2019-02-12T00:21:09.239Z,3.84
2019-02-12T00:22:06.948Z,3.81
2019-02-12T00:23:06.720Z,3.66
2019-02-12T00:24:06.719Z,3.74
2019-02-12T00:25:06.765Z,3.66
2019-02-12T00:28:06.701Z,3.73
2019-02-12T00:29:06.684Z,3.77
2019-02-12T00:30:07.091Z,3.69
2019-02-12T00:31:06.674Z,3.76
2019-02-12T00:33:07.176Z,3.80
2019-02-12T00:34:06.866Z,3.76
2019-02-12T00:35:06.652Z,3.69
2019-02-12T00:36:07.048Z,3.66
2019-02-12T00:37:06.950Z,3.70
2019-02-12T00:38:06.629Z,3.78
2019-02-12T00:40:06.838Z,3.73
2019-02-12T00:41:06.825Z,3.69
2019-02-12T00:42:06.819Z,3.60
2019-02-12T00:43:06.786Z,3.58
2019-02-12T00:44:06.988Z,3.55
2019-02-12T00:45:06.596Z,3.58
2019-02-12T00:46:06.982Z,3.47
2019-02-12T00:47:06.570Z,3.48
2019-02-12T00:48:06.868Z,3.40
2019-02-12T00:50:06.955Z,3.29
2019-02-12T00:51:06.756Z,3.26
2019-02-12T00:52:06.756Z,3.18
2019-02-12T00:53:06.936Z,3.21
2019-02-12T00:54:06.743Z,3.31
2019-02-12T00:55:06.720Z,3.23
2019-02-12T00:56:06.523Z,3.19
2019-02-12T00:57:06.714Z,3.18
2019-02-12T00:58:06.505Z,3.19
2019-02-12T00:59:06.499Z,3.13
2019-02-12T01:00:06.806Z,3.08
2019-02-12T01:01:06.802Z,2.97
2019-02-12T01:02:06.477Z,3.07
2019-02-12T01:03:06.874Z,3.07
2019-02-12T01:04:06.471Z,3.05
2019-02-12T01:06:06.662Z,3.11
2019-02-12T01:07:06.655Z,3.11
2019-02-12T01:08:06.750Z,3.07
2019-02-12T01:09:06.462Z,3.13
2019-02-12T01:12:06.402Z,2.93
2019-02-12T01:14:06.413Z,2.95
2019-02-12T01:15:06.606Z,2.90
2019-02-12T01:16:06.391Z,2.83
2019-02-12T01:17:06.408Z,2.80
2019-02-12T01:18:06.601Z,2.75
2019-02-12T01:20:06.370Z,2.64
2019-02-12T01:21:06.372Z,2.65
2019-02-12T01:22:06.771Z,2.67
2019-02-12T01:23:06.369Z,2.62
2019-02-12T01:25:06.537Z,2.62
2019-02-12T01:26:06.544Z,2.67
2019-02-12T01:27:06.841Z,2.68
2019-02-12T01:30:06.330Z,2.72
2019-02-12T01:31:07.210Z,2.71
2019-02-12T01:32:06.316Z,2.72
2019-02-12T01:33:06.302Z,2.72
2019-02-12T01:34:06.304Z,2.71
2019-02-12T01:35:06.480Z,2.72
2019-02-12T01:36:06.495Z,2.69
2019-02-12T01:38:06.273Z,2.74
2019-02-12T01:39:06.266Z,2.69
2019-02-12T01:42:06.756Z,2.74
2019-02-12T01:43:06.672Z,2.75
2019-02-12T01:45:06.218Z,2.64
2019-02-12T01:46:06.215Z,2.57
2019-02-12T01:47:06.208Z,2.60
2019-02-12T01:48:06.419Z,2.61
2019-02-12T01:49:06.413Z,2.62
2019-02-12T01:50:06.399Z,2.50
2019-02-12T01:51:06.403Z,2.51
2019-02-12T01:52:06.174Z,2.44
2019-02-12T01:53:06.245Z,2.50
2019-02-12T01:54:06.157Z,2.49
2019-02-12T01:55:06.153Z,2.46
2019-02-12T01:56:06.346Z,2.49
2019-02-12T01:57:06.141Z,2.44
2019-02-12T01:58:06.552Z,2.47
2019-02-12T01:59:06.342Z,2.46
2019-02-12T02:00:06.447Z,2.36
2019-02-12T02:03:06.124Z,2.28
2019-02-12T02:04:06.492Z,2.33
2019-02-12T02:05:07.010Z,2.17
2019-02-12T02:06:06.307Z,2.18
2019-02-12T02:07:06.111Z,2.11
2019-02-12T02:08:06.110Z,2.00
2019-02-12T02:10:06.061Z,2.07
2019-02-12T02:11:06.061Z,1.99
2019-02-12T02:12:06.268Z,1.94
2019-02-12T02:13:06.043Z,1.77
2019-02-12T02:14:06.747Z,1.78
2019-02-12T02:15:06.273Z,1.84
2019-02-12T02:16:06.024Z,1.81
2019-02-12T02:17:06.007Z,1.87
2019-02-12T02:19:06.030Z,1.91
2019-02-12T02:20:06.443Z,1.89
2019-02-12T02:21:06.224Z,1.88
2019-02-12T02:22:06.009Z,1.84
2019-02-12T02:23:05.991Z,1.84
2019-02-12T02:24:06.013Z,1.67
2019-02-12T02:25:06.192Z,1.73
2019-02-12T02:27:06.162Z,1.74
2019-02-12T02:28:06.165Z,1.70
2019-02-12T02:30:05.950Z,1.73
2019-02-12T02:31:06.333Z,1.71
2019-02-12T02:32:06.133Z,1.63
2019-02-12T02:33:05.923Z,1.56
2019-02-12T02:36:05.914Z,1.49
2019-02-12T02:37:05.912Z,1.60
2019-02-12T02:38:06.402Z,1.63
2019-02-12T02:39:05.880Z,1.60
2019-02-12T02:41:05.877Z,1.48
2019-02-12T02:43:05.879Z,1.48
2019-02-12T02:44:05.858Z,1.45
2019-02-12T02:45:05.847Z,1.45
2019-02-12T02:46:05.843Z,1.32
2019-02-12T02:47:05.854Z,1.38
2019-02-12T02:48:06.041Z,1.37
2019-02-12T02:49:06.036Z,1.44
2019-02-12T02:50:05.810Z,1.48
2019-02-12T02:51:06.218Z,1.52
2019-02-12T02:52:06.017Z,1.53
2019-02-12T02:53:05.789Z,1.52
2019-02-12T02:55:05.791Z,1.56
2019-02-12T02:56:06.181Z,1.56
2019-02-12T02:58:05.772Z,1.59
2019-02-12T02:59:05.761Z,1.63
2019-02-12T03:01:05.757Z,1.49
2019-02-12T03:02:06.053Z,1.41
2019-02-12T03:04:06.037Z,1.48
2019-02-12T03:05:05.717Z,1.50
2019-02-12T03:06:06.017Z,1.53
2019-02-12T03:07:05.698Z,1.66
2019-02-12T03:10:05.716Z,1.85
2019-02-12T03:12:05.678Z,1.85
2019-02-12T03:14:05.657Z,1.80
2019-02-12T03:15:05.645Z,1.77
2019-02-12T03:16:06.349Z,1.77
2019-02-12T03:17:05.848Z,1.81
2019-02-12T03:18:05.681Z,1.74
2019-02-12T03:19:05.625Z,1.76
2019-02-12T03:20:05.605Z,1.78
2019-02-12T03:21:05.918Z,1.77
2019-02-12T03:22:06.022Z,1.88
2019-02-12T03:23:05.596Z,1.84
2019-02-12T03:24:05.821Z,1.87
2019-02-12T03:25:05.599Z,1.89
2019-02-12T03:26:05.566Z,1.84
2019-02-12T03:27:05.570Z,1.92
2019-02-12T03:28:05.869Z,1.94
2019-02-12T03:29:05.547Z,1.91
2019-02-12T03:30:05.761Z,2.07
2019-02-12T03:31:05.564Z,1.97
2019-02-12T03:32:06.266Z,2.00
2019-02-12T03:33:05.798Z,1.97
2019-02-12T03:35:05.523Z,1.99
2019-02-12T03:36:05.512Z,2.00
2019-02-12T03:37:05.725Z,2.14
2019-02-12T03:38:05.508Z,2.22
2019-02-12T03:39:05.510Z,2.17
2019-02-12T03:40:05.796Z,2.18
2019-02-12T03:41:05.507Z,2.13
2019-02-12T03:42:05.791Z,2.14
2019-02-12T03:43:05.874Z,2.14
2019-02-12T03:44:05.901Z,2.17
2019-02-12T03:47:06.387Z,2.25
2019-02-12T03:48:05.649Z,2.25
2019-02-12T03:49:05.854Z,2.14
2019-02-12T03:50:05.955Z,2.14
2019-02-12T03:53:05.627Z,2.10
2019-02-12T03:54:05.607Z,2.10
2019-02-12T03:56:05.390Z,2.22
2019-02-12T03:57:05.407Z,2.15
2019-02-12T03:58:05.378Z,2.22
2019-02-12T03:59:05.395Z,2.17
2019-02-12T04:00:05.371Z,2.18
2019-02-12T04:02:05.365Z,2.15
2019-02-12T04:03:05.362Z,2.24
2019-02-12T04:04:05.357Z,2.25
2019-02-12T04:05:05.324Z,2.24
2019-02-12T04:06:05.309Z,2.13
2019-02-12T04:09:05.527Z,2.18
2019-02-12T04:10:05.499Z,2.10
2019-02-12T04:12:05.291Z,2.08
2019-02-12T04:13:05.301Z,2.11
2019-02-12T04:14:05.500Z,2.08
2019-02-12T04:15:05.277Z,2.15
2019-02-12T04:16:05.280Z,2.00
2019-02-12T04:18:05.560Z,1.87
2019-02-12T04:19:05.446Z,1.89
2019-02-12T04:20:05.444Z,1.80
2019-02-12T04:21:05.856Z,1.66
2019-02-12T04:23:05.232Z,1.71
2019-02-12T04:24:05.432Z,1.63
2019-02-12T04:25:05.227Z,1.48
2019-02-12T04:26:05.249Z,1.45
2019-02-12T04:27:05.596Z,1.40
2019-02-12T04:28:05.191Z,1.48
2019-02-12T04:29:05.203Z,1.28
2019-02-12T04:30:05.199Z,1.31
2019-02-12T04:31:05.904Z,1.26
2019-02-12T04:32:05.161Z,1.24
2019-02-12T04:33:05.575Z,1.26
2019-02-12T04:34:05.370Z,1.17
2019-02-12T04:35:05.161Z,1.28
2019-02-12T04:37:05.137Z,1.28
2019-02-12T04:38:05.636Z,1.30
2019-02-12T04:39:05.109Z,1.28
2019-02-12T04:41:05.111Z,1.31
2019-02-12T04:42:05.098Z,1.30
2019-02-12T04:43:05.089Z,1.30
2019-02-12T04:45:05.294Z,1.34
2019-02-12T04:46:05.299Z,1.32
2019-02-12T04:47:05.279Z,1.24
2019-02-12T04:48:05.460Z,1.08
2019-02-12T04:49:06.004Z,1.20
2019-02-12T04:50:05.760Z,1.20
2019-02-12T04:51:05.059Z,1.24
2019-02-12T04:52:05.452Z,1.17
2019-02-12T04:54:05.238Z,1.13
2019-02-12T04:55:06.192Z,1.08
2019-02-12T04:56:05.009Z,1.12
2019-02-12T04:57:05.434Z,1.05
2019-02-12T04:58:05.211Z,1.10
2019-02-12T04:59:05.197Z,1.10
2019-02-12T05:00:05.381Z,1.14
2019-02-12T05:02:04.971Z,1.17
2019-02-12T05:03:05.168Z,1.08
2019-02-12T05:04:05.254Z,1.12
2019-02-12T05:08:05.349Z,0.78
2019-02-12T05:09:05.216Z,0.69
2019-02-12T05:10:05.127Z,0.65
2019-02-12T05:11:04.954Z,0.58
2019-02-12T05:12:04.908Z,0.63
2019-02-12T05:13:04.892Z,0.60
2019-02-12T05:14:05.110Z,0.65
2019-02-12T05:15:05.113Z,0.58
2019-02-12T05:16:05.391Z,0.59
2019-02-12T05:17:05.078Z,0.58
2019-02-12T05:18:04.883Z,0.59
2019-02-12T05:20:05.058Z,0.60
2019-02-12T05:21:04.866Z,0.60
2019-02-12T05:23:05.109Z,0.47
2019-02-12T05:27:04.812Z,0.34
2019-02-12T05:28:05.505Z,0.32
2019-02-12T05:29:04.824Z,0.36
2019-02-12T05:31:04.787Z,0.36
2019-02-12T05:32:04.998Z,0.25
2019-02-12T05:33:04.778Z,0.23
2019-02-12T05:34:04.969Z,0.28
2019-02-12T05:35:05.162Z,0.23
2019-02-12T05:36:04.940Z,0.29
2019-02-12T05:37:04.740Z,0.36
2019-02-12T05:38:05.153Z,0.41
2019-02-12T05:39:04.710Z,0.39
2019-02-12T05:40:04.739Z,0.40
2019-02-12T05:41:04.720Z,0.41
2019-02-12T05:42:04.707Z,0.44
2019-02-12T05:43:04.686Z,0.50
2019-02-12T05:44:04.682Z,0.49
2019-02-12T05:45:04.680Z,0.47
2019-02-12T05:46:04.700Z,0.43
2019-02-12T05:49:04.685Z,0.52
2019-02-12T05:51:05.241Z,0.50
2019-02-12T05:52:05.542Z,0.55
2019-02-12T05:53:06.618Z,0.59
2019-02-12T05:54:05.139Z,0.55
2019-02-12T05:55:04.602Z,0.59
2019-02-12T05:56:04.602Z,0.68
2019-02-12T05:57:04.830Z,0.68
2019-02-12T05:58:04.589Z,0.59
2019-02-12T05:59:04.968Z,0.60
2019-02-12T06:00:04.977Z,0.60
2019-02-12T06:01:04.773Z,0.52
2019-02-12T06:02:04.550Z,0.49
2019-02-12T06:03:04.857Z,0.44
2019-02-12T06:04:04.546Z,0.49
2019-02-12T06:06:04.541Z,0.52
2019-02-12T06:07:04.823Z,0.46
2019-02-12T06:08:04.528Z,0.50
2019-02-12T06:09:04.734Z,0.44
2019-02-12T06:10:04.510Z,0.37
2019-02-12T06:11:04.498Z,0.34
2019-02-12T06:12:04.692Z,0.44
2019-02-12T06:13:04.486Z,0.46
2019-02-12T06:17:04.447Z,0.49
2019-02-12T06:18:04.476Z,0.58
2019-02-12T06:19:05.048Z,0.56
2019-02-12T06:20:04.630Z,0.59
2019-02-12T06:21:04.448Z,0.60
2019-02-12T06:22:04.925Z,0.59
2019-02-12T06:23:04.446Z,0.65
2019-02-12T06:25:07.769Z,0.62
2019-02-12T06:26:04.375Z,0.55
2019-02-12T06:27:04.373Z,0.76
2019-02-12T06:28:04.394Z,0.70
2019-02-12T06:29:04.854Z,0.68
2019-02-12T06:30:04.577Z,0.68
2019-02-12T06:34:04.346Z,0.73
2019-02-12T06:35:04.547Z,0.60
2019-02-12T06:36:04.331Z,0.62
2019-02-12T06:37:04.515Z,0.58
2019-02-12T06:38:04.301Z,0.62
2019-02-12T06:39:04.900Z,0.58
2019-02-12T06:40:04.306Z,0.65
2019-02-12T06:41:04.303Z,0.63
2019-02-12T06:42:04.281Z,0.69
2019-02-12T06:43:04.609Z,0.65
2019-02-12T06:44:04.474Z,0.76
2019-02-12T06:45:04.456Z,0.76
2019-02-12T06:46:04.256Z,0.84
2019-02-12T06:47:04.245Z,0.77
2019-02-12T06:49:04.234Z,0.73
2019-02-12T06:51:04.446Z,0.80
2019-02-12T06:52:04.212Z,0.87
2019-02-12T06:53:12.249Z,0.91
2019-02-12T06:55:04.195Z,0.83
2019-02-12T06:56:04.179Z,0.81
2019-02-12T06:57:04.175Z,0.86
2019-02-12T06:58:04.160Z,0.81
2019-02-12T06:59:04.359Z,0.76
2019-02-12T07:00:04.151Z,0.73
2019-02-12T07:01:04.343Z,0.81
2019-02-12T07:03:04.129Z,0.74
2019-02-12T07:04:04.122Z,0.77
2019-02-12T07:05:04.328Z,0.78
2019-02-12T07:06:04.110Z,0.78
2019-02-12T07:07:04.103Z,0.78
2019-02-12T07:09:04.090Z,0.81
2019-02-12T07:10:04.400Z,0.87
2019-02-12T07:11:04.089Z,0.94
2019-02-12T07:12:04.090Z,0.98
2019-02-12T07:13:04.272Z,1.01
2019-02-12T07:14:04.271Z,1.04
2019-02-12T07:15:04.070Z,1.02
2019-02-12T07:16:04.071Z,0.99
2019-02-12T07:17:04.258Z,1.05
2019-02-12T07:18:04.338Z,0.95
2019-02-12T07:19:04.545Z,0.99
2019-02-12T07:21:04.021Z,1.12
2019-02-12T07:22:04.005Z,1.19
2019-02-12T07:24:04.191Z,1.23
2019-02-12T07:25:04.190Z,1.26
2019-02-12T07:26:04.188Z,1.22
2019-02-12T07:27:04.172Z,1.23
2019-02-12T07:28:03.961Z,1.26
2019-02-12T07:29:04.273Z,1.30
2019-02-12T07:30:04.144Z,1.24
2019-02-12T07:31:04.552Z,1.26
2019-02-12T07:32:03.940Z,1.34
2019-02-12T07:33:12.902Z,1.31
2019-02-12T07:34:04.131Z,1.40
2019-02-12T07:35:03.916Z,1.38
2019-02-12T07:36:03.911Z,1.42
2019-02-12T07:37:03.915Z,1.53
2019-02-12T07:38:04.091Z,1.53
2019-02-12T07:39:03.905Z,1.59
2019-02-12T07:40:04.086Z,1.66
2019-02-12T07:41:03.873Z,1.68
2019-02-12T07:42:03.876Z,1.70
2019-02-12T07:43:04.363Z,1.74
2019-02-12T07:44:03.855Z,1.78
2019-02-12T07:45:03.852Z,1.81
2019-02-12T07:46:04.252Z,1.76
2019-02-12T07:47:03.835Z,1.91
2019-02-12T07:49:03.845Z,1.81
2019-02-12T07:50:03.823Z,1.85
2019-02-12T07:51:04.104Z,1.84
2019-02-12T07:52:03.812Z,1.77
2019-02-12T07:53:04.020Z,1.85
2019-02-12T07:54:04.005Z,1.88
2019-02-12T07:56:04.190Z,1.81
2019-02-12T07:57:03.782Z,1.91
2019-02-12T07:58:03.787Z,1.89
2019-02-12T07:59:03.765Z,2.07
2019-02-12T08:00:04.177Z,1.99
2019-02-12T08:01:03.739Z,1.99
2019-02-12T08:03:03.745Z,2.15
2019-02-12T08:04:03.736Z,2.14
2019-02-12T08:05:04.434Z,2.15
2019-02-12T08:06:04.127Z,2.14
2019-02-12T08:07:03.690Z,2.10
2019-02-12T08:08:04.212Z,2.20
2019-02-12T08:09:04.007Z,2.10
2019-02-12T08:10:03.669Z,2.22
2019-02-12T08:11:03.666Z,2.15
2019-02-12T08:14:04.881Z,2.15
2019-02-12T08:15:03.871Z,2.25
2019-02-12T08:17:03.825Z,2.11
2019-02-12T08:18:03.633Z,2.15
2019-02-12T08:20:03.625Z,2.14
2019-02-12T08:21:05.028Z,2.14
2019-02-12T08:23:04.110Z,2.15
2019-02-12T08:24:03.596Z,2.13
2019-02-12T08:26:03.816Z,2.15
2019-02-12T08:27:03.592Z,2.31
2019-02-12T08:28:03.573Z,2.36
2019-02-12T08:29:03.772Z,2.28
2019-02-12T08:30:03.759Z,2.36
2019-02-12T08:32:03.747Z,2.42
2019-02-12T08:33:03.767Z,2.47
2019-02-12T08:34:03.577Z,2.49
2019-02-12T08:35:03.522Z,2.50
2019-02-12T08:37:03.739Z,2.47
2019-02-12T08:39:03.804Z,2.60
2019-02-12T08:40:03.527Z,2.61
2019-02-12T08:42:03.999Z,2.68
2019-02-12T08:45:03.492Z,2.61
2019-02-12T08:46:03.465Z,2.68
2019-02-12T08:47:03.649Z,2.65
2019-02-12T08:48:03.455Z,2.69
2019-02-12T08:51:04.377Z,2.62
2019-02-12T08:52:03.622Z,2.64
2019-02-12T08:53:03.430Z,2.65
2019-02-12T08:54:03.407Z,2.65
2019-02-12T08:55:03.416Z,2.67
2019-02-12T08:58:03.407Z,2.67
2019-02-12T08:59:03.376Z,2.79
2019-02-12T09:00:03.666Z,2.82
2019-02-12T09:01:03.381Z,2.86
2019-02-12T09:02:03.353Z,2.87
2019-02-12T09:05:03.545Z,2.98
2019-02-12T09:06:03.991Z,2.95
2019-02-12T09:07:03.636Z,3.07
2019-02-12T09:08:03.342Z,3.05
2019-02-12T09:09:04.038Z,3.16
2019-02-12T09:10:03.619Z,3.14
2019-02-12T09:11:03.738Z,3.19
2019-02-12T09:12:03.292Z,3.22
2019-02-12T09:13:03.297Z,3.23
2019-02-12T09:14:03.303Z,3.28
2019-02-12T09:16:03.270Z,3.41
2019-02-12T09:17:03.281Z,3.42
2019-02-12T09:18:03.261Z,3.41
2019-02-12T09:19:03.261Z,3.47
2019-02-12T09:20:03.274Z,3.47
2019-02-12T09:21:03.554Z,3.51
2019-02-12T09:22:03.253Z,3.59
2019-02-12T09:23:03.457Z,3.59
2019-02-12T09:25:03.951Z,3.55
2019-02-12T09:26:03.208Z,3.60
2019-02-12T09:28:03.400Z,3.62
2019-02-12T09:29:03.188Z,3.69
2019-02-12T09:31:03.499Z,3.73
2019-02-12T09:32:03.165Z,3.69
2019-02-12T09:33:03.390Z,3.77
2019-02-12T09:34:03.570Z,3.81
2019-02-12T09:36:03.167Z,3.69
2019-02-12T09:38:03.142Z,3.76
2019-02-12T09:39:03.142Z,3.80
2019-02-12T09:40:03.152Z,3.77
2019-02-12T09:42:03.629Z,3.78
2019-02-12T09:43:03.111Z,3.81
2019-02-12T09:44:03.301Z,3.86
2019-02-12T09:45:03.519Z,3.83
2019-02-12T09:46:03.114Z,3.88
2019-02-12T09:49:03.075Z,3.99
2019-02-12T09:51:03.060Z,3.94
2019-02-12T09:52:03.264Z,4.04
2019-02-12T09:53:03.062Z,4.16
2019-02-12T09:54:08.628Z,4.14
2019-02-12T09:55:03.063Z,4.17
2019-02-12T09:56:03.050Z,4.20
2019-02-12T09:59:03.237Z,4.31
2019-02-12T10:00:03.016Z,4.26
2019-02-12T10:01:03.011Z,4.34
2019-02-12T10:03:03.397Z,4.37
2019-02-12T10:04:03.016Z,4.37
2019-02-12T10:05:03.183Z,4.35
2019-02-12T10:07:03.599Z,4.41
2019-02-12T10:08:02.968Z,4.45
2019-02-12T10:09:02.969Z,4.53
2019-02-12T10:10:02.980Z,4.50
2019-02-12T10:11:03.136Z,4.58
2019-02-12T10:12:03.161Z,4.53
2019-02-12T10:13:03.147Z,4.55
2019-02-12T10:14:02.936Z,4.56
2019-02-12T10:15:03.146Z,4.59
2019-02-12T10:16:03.331Z,4.58
2019-02-12T10:17:03.122Z,4.59
2019-02-12T10:18:02.922Z,4.71
2019-02-12T10:19:02.924Z,4.67
2019-02-12T10:20:03.114Z,4.59
2019-02-12T10:21:02.888Z,4.68
2019-02-12T10:22:02.926Z,4.71
2019-02-12T10:23:02.894Z,4.75
2019-02-12T10:25:02.884Z,4.77
2019-02-12T10:27:03.168Z,4.90
2019-02-12T10:28:03.079Z,4.89
2019-02-12T10:29:02.878Z,4.87
2019-02-12T10:30:02.856Z,4.90
2019-02-12T10:32:08.746Z,5.00
2019-02-12T10:33:02.824Z,4.97
2019-02-12T10:34:03.023Z,4.97
2019-02-12T10:35:03.018Z,5.05
2019-02-12T10:37:02.808Z,4.99
2019-02-12T10:38:02.809Z,5.04
2019-02-12T10:40:03.000Z,5.00
2019-02-12T10:41:02.779Z,5.15
2019-02-12T10:42:02.785Z,5.20
2019-02-12T10:43:02.774Z,5.21
2019-02-12T10:44:02.799Z,5.23
2019-02-12T10:45:02.771Z,5.30
2019-02-12T10:46:02.961Z,5.35
2019-02-12T10:47:02.969Z,5.38
2019-02-12T10:48:02.947Z,5.48
2019-02-12T10:49:02.765Z,5.53
2019-02-12T10:50:03.365Z,5.50
2019-02-12T10:51:02.945Z,5.50
2019-02-12T10:52:02.725Z,5.50
2019-02-12T10:54:03.130Z,5.65
2019-02-12T10:55:02.727Z,5.62
2019-02-12T10:56:04.587Z,5.48
2019-02-12T10:57:02.716Z,5.51
2019-02-12T10:58:02.706Z,5.48
2019-02-12T10:59:02.910Z,5.54
2019-02-12T11:00:02.697Z,5.59
2019-02-12T11:02:02.702Z,5.59
2019-02-12T11:03:02.665Z,5.57
2019-02-12T11:04:02.687Z,5.61
2019-02-12T11:05:02.669Z,5.51
2019-02-12T11:06:02.653Z,5.57
2019-02-12T11:07:02.686Z,5.54
2019-02-12T11:08:02.669Z,5.54
2019-02-12T11:09:02.657Z,5.50
2019-02-12T11:12:02.830Z,5.69
2019-02-12T11:13:02.643Z,5.66
2019-02-12T11:14:03.032Z,5.59
2019-02-12T11:15:02.596Z,5.61
2019-02-12T11:16:02.602Z,5.68
2019-02-12T11:17:02.909Z,5.62
2019-02-12T11:18:02.819Z,5.65
2019-02-12T11:19:02.792Z,5.64
2019-02-12T11:21:02.778Z,5.64
2019-02-12T11:22:02.879Z,5.71
2019-02-12T11:23:02.774Z,5.66
2019-02-12T11:24:02.766Z,5.59
2019-02-12T11:25:02.972Z,5.62
2019-02-12T11:26:02.971Z,5.69
2019-02-12T11:28:02.747Z,5.72
2019-02-12T11:29:02.538Z,5.68
2019-02-12T11:30:02.742Z,5.65
2019-02-12T11:31:02.542Z,5.72
2019-02-12T11:32:03.259Z,5.72
2019-02-12T11:35:02.515Z,5.76
2019-02-12T11:37:02.518Z,5.68
2019-02-12T11:38:03.109Z,5.68
2019-02-12T11:39:02.485Z,5.72
2019-02-12T11:40:03.395Z,5.73
2019-02-12T11:41:02.509Z,5.69
2019-02-12T11:43:02.482Z,5.75
2019-02-12T11:44:02.486Z,5.79
2019-02-12T11:45:02.460Z,5.72
2019-02-12T11:46:03.887Z,5.73
2019-02-12T11:47:02.665Z,5.89
2019-02-12T11:48:02.455Z,5.94
2019-02-12T11:49:02.644Z,5.99
2019-02-12T11:50:02.446Z,5.97
2019-02-12T11:51:02.426Z,5.98
2019-02-12T11:52:02.620Z,6.01
2019-02-12T11:53:02.657Z,6.04
2019-02-12T11:55:02.645Z,6.04
2019-02-12T11:56:02.819Z,6.04
2019-02-12T11:57:02.399Z,6.01
2019-02-12T11:58:02.602Z,6.09
2019-02-12T11:59:02.377Z,6.07
2019-02-12T12:00:02.589Z,6.07
2019-02-12T12:01:02.872Z,6.08
2019-02-12T12:02:02.391Z,6.14
2019-02-12T12:03:02.581Z,6.11
2019-02-12T12:04:02.583Z,6.17
2019-02-12T12:05:02.553Z,6.16
2019-02-12T12:06:02.368Z,6.16
2019-02-12T12:07:03.053Z,6.16
2019-02-12T12:09:02.744Z,6.17
2019-02-12T12:11:02.324Z,6.22
2019-02-12T12:12:02.352Z,6.22
2019-02-12T12:13:02.937Z,6.26
2019-02-12T12:14:03.455Z,6.20
2019-02-12T12:15:02.310Z,6.27
2019-02-12T12:16:02.506Z,6.27
2019-02-12T12:17:02.521Z,6.27
2019-02-12T12:18:02.290Z,6.31
2019-02-12T12:20:02.304Z,6.27
2019-02-12T12:21:02.509Z,6.27
2019-02-12T12:23:02.495Z,6.24
2019-02-12T12:24:02.276Z,6.26
2019-02-12T12:25:02.276Z,6.33
2019-02-12T12:27:02.248Z,6.36
2019-02-12T12:28:02.264Z,6.49
2019-02-12T12:29:02.462Z,6.41
2019-02-12T12:30:02.439Z,6.51
2019-02-12T12:31:02.443Z,6.46
2019-02-12T12:32:02.851Z,6.52
2019-02-12T12:33:02.225Z,6.51
2019-02-12T12:34:02.618Z,6.56
2019-02-12T12:35:03.109Z,6.66
2019-02-12T12:37:02.202Z,6.70
2019-02-12T12:38:02.197Z,6.63
2019-02-12T12:39:02.397Z,6.67
2019-02-12T12:40:02.411Z,6.74
2019-02-12T12:43:02.374Z,6.72
2019-02-12T12:44:02.170Z,6.79
2019-02-12T12:45:02.167Z,6.77
2019-02-12T12:47:02.367Z,6.75
2019-02-12T12:48:02.383Z,6.79
2019-02-12T12:49:02.155Z,6.75
2019-02-12T12:50:02.134Z,6.75
2019-02-12T12:51:02.739Z,6.74
2019-02-12T12:52:02.131Z,6.88
2019-02-12T12:54:02.137Z,6.77
2019-02-12T12:55:02.129Z,6.72
2019-02-12T12:56:02.126Z,6.78
2019-02-12T12:57:02.329Z,6.78
2019-02-12T12:59:02.121Z,6.72
2019-02-12T13:00:02.295Z,6.79
2019-02-12T13:01:02.109Z,6.77
2019-02-12T13:02:02.298Z,6.75
2019-02-12T13:04:02.493Z,6.75
2019-02-12T13:05:02.721Z,6.75
2019-02-12T13:06:02.272Z,6.75
2019-02-12T13:07:02.080Z,6.70
2019-02-12T13:08:02.088Z,6.75
2019-02-12T13:09:02.079Z,6.62
2019-02-12T13:11:02.039Z,6.56
2019-02-12T13:13:02.248Z,6.66
2019-02-12T13:14:02.224Z,6.66
2019-02-12T13:16:03.029Z,6.75
2019-02-12T13:17:02.233Z,6.78
2019-02-12T13:18:02.283Z,6.74
2019-02-12T13:19:02.223Z,6.82
2019-02-12T13:20:02.017Z,6.81
2019-02-12T13:21:02.018Z,6.95
2019-02-12T13:22:02.715Z,7.00
2019-02-12T13:23:01.991Z,6.92
2019-02-12T13:24:02.178Z,6.99
2019-02-12T13:25:08.180Z,7.07
2019-02-12T13:26:02.192Z,7.06
2019-02-12T13:27:02.472Z,7.07
2019-02-12T13:28:02.683Z,7.07
2019-02-12T13:29:01.962Z,7.13
2019-02-12T13:33:02.142Z,7.21
2019-02-12T13:34:01.946Z,7.15
2019-02-12T13:35:02.145Z,7.17
2019-02-12T13:36:02.129Z,7.18
2019-02-12T13:39:02.106Z,7.20
2019-02-12T13:41:01.906Z,7.15
2019-02-12T13:42:02.412Z,7.20
2019-02-12T13:43:01.909Z,7.15
2019-02-12T13:44:02.519Z,7.21
2019-02-12T13:45:02.299Z,7.14
2019-02-12T13:46:02.106Z,7.24
2019-02-12T13:47:02.082Z,7.18
2019-02-12T13:49:02.184Z,7.11
2019-02-12T13:50:01.884Z,7.13
2019-02-12T13:51:01.892Z,7.10
2019-02-12T13:52:01.897Z,7.23
2019-02-12T13:53:01.858Z,7.07
2019-02-12T13:55:02.651Z,7.20
2019-02-12T13:56:02.038Z,7.20
2019-02-12T13:57:02.741Z,7.21
2019-02-12T13:58:01.831Z,7.14
2019-02-12T14:00:02.037Z,7.21
2019-02-12T14:01:02.029Z,7.23
2019-02-12T14:02:03.389Z,7.20
2019-02-12T14:05:02.100Z,7.24
2019-02-12T14:06:02.070Z,7.25
2019-02-12T14:07:01.785Z,7.24
2019-02-12T14:08:01.809Z,7.24
2019-02-12T14:09:01.790Z,7.25
2019-02-12T14:10:01.778Z,7.29
2019-02-12T14:11:01.963Z,7.29
2019-02-12T14:12:01.764Z,7.23
2019-02-12T14:13:01.763Z,7.24
2019-02-12T14:14:01.769Z,7.21
2019-02-12T14:16:01.750Z,7.23
2019-02-12T14:17:01.752Z,7.23
2019-02-12T14:18:02.267Z,7.28
2019-02-12T14:19:01.740Z,7.20
2019-02-12T14:21:01.733Z,7.23
2019-02-12T14:22:01.729Z,7.25
2019-02-12T14:24:01.698Z,7.32
2019-02-12T14:25:01.727Z,7.23
2019-02-12T14:26:01.702Z,7.25
2019-02-12T14:28:01.892Z,7.31
2019-02-12T14:29:01.681Z,7.36
2019-02-12T14:30:01.683Z,7.36
2019-02-12T14:31:01.692Z,7.35
2019-02-12T14:32:02.197Z,7.36
2019-02-12T14:33:01.679Z,7.31
2019-02-12T14:34:01.678Z,7.38
2019-02-12T14:35:01.874Z,7.38
2019-02-12T14:36:01.673Z,7.38
2019-02-12T14:38:01.652Z,7.32
2019-02-12T14:40:01.659Z,7.38
2019-02-12T14:41:01.646Z,7.32
2019-02-12T14:42:01.644Z,7.33
2019-02-12T14:44:02.025Z,7.45
2019-02-12T14:45:01.623Z,7.38
2019-02-12T14:46:01.825Z,7.40
2019-02-12T14:47:01.635Z,7.43
2019-02-12T14:48:01.615Z,7.39
2019-02-12T14:50:01.806Z,7.33
2019-02-12T14:51:01.997Z,7.31
2019-02-12T14:52:02.203Z,7.33
2019-02-12T14:53:02.001Z,7.28
2019-02-12T14:54:01.800Z,7.24
2019-02-12T14:55:02.491Z,7.21
2019-02-12T14:56:01.997Z,7.17
2019-02-12T14:57:01.771Z,7.23
2019-02-12T14:58:01.887Z,7.18
2019-02-12T15:00:01.774Z,7.24
2019-02-12T15:01:01.895Z,7.20
2019-02-12T15:02:01.776Z,7.11
2019-02-12T15:04:01.545Z,7.20
2019-02-12T15:05:01.850Z,7.24
2019-02-12T15:06:01.934Z,7.25
2019-02-12T15:07:01.545Z,7.18
2019-02-12T15:10:01.531Z,7.18
2019-02-12T15:12:01.738Z,7.23
2019-02-12T15:13:01.822Z,7.06
2019-02-12T15:14:01.493Z,7.07
2019-02-12T15:16:01.710Z,7.14
2019-02-12T15:18:01.982Z,7.13
2019-02-12T15:19:01.686Z,7.13
2019-02-12T15:20:01.697Z,7.10
2019-02-12T15:21:01.463Z,7.05
2019-02-12T15:23:01.460Z,7.05
2019-02-12T15:25:01.454Z,7.07
2019-02-12T15:26:01.441Z,7.03
2019-02-12T15:27:01.434Z,7.11
2019-02-12T15:28:01.633Z,7.11
2019-02-12T15:29:01.643Z,7.10
2019-02-12T15:30:01.424Z,7.06
2019-02-12T15:32:01.619Z,7.06
2019-02-12T15:33:01.803Z,7.07
2019-02-12T15:34:01.703Z,7.07
2019-02-12T15:35:01.606Z,7.05
2019-02-12T15:36:02.111Z,7.06
2019-02-12T15:37:01.396Z,7.06
2019-02-12T15:38:01.673Z,7.03
2019-02-12T15:39:01.385Z,7.05
2019-02-12T15:40:01.685Z,7.06
2019-02-12T15:41:01.682Z,6.99
2019-02-12T15:42:01.592Z,7.02
2019-02-12T15:44:01.369Z,6.97
2019-02-12T15:45:01.553Z,6.95
2019-02-12T15:46:01.343Z,6.92
2019-02-12T15:48:01.561Z,6.85
2019-02-12T15:49:01.335Z,6.85
2019-02-12T15:51:01.330Z,6.82
2019-02-12T15:52:01.327Z,6.81
2019-02-12T15:53:01.539Z,6.84
2019-02-12T15:54:01.737Z,6.78
2019-02-12T15:56:01.304Z,6.72
2019-02-12T15:57:01.519Z,6.74
2019-02-12T15:58:01.350Z,6.69
2019-02-12T15:59:03.038Z,6.69
2019-02-12T16:00:01.270Z,6.57
2019-02-12T16:01:01.943Z,6.62
2019-02-12T16:04:01.471Z,6.59
2019-02-12T16:05:01.283Z,6.49
2019-02-12T16:06:01.257Z,6.44
2019-02-12T16:07:01.985Z,6.52
2019-02-12T16:08:01.977Z,6.46
2019-02-12T16:09:01.473Z,6.46
2019-02-12T16:10:01.457Z,6.48
2019-02-12T16:11:01.238Z,6.45
2019-02-12T16:12:02.106Z,6.45
2019-02-12T16:13:01.656Z,6.45
2019-02-12T16:14:01.431Z,6.36
2019-02-12T16:15:01.705Z,6.39
2019-02-12T16:18:02.576Z,6.30
2019-02-12T16:19:01.233Z,6.22
2019-02-12T16:21:01.397Z,6.20
2019-02-12T16:22:06.605Z,6.12
2019-02-12T16:23:01.392Z,6.24
2019-02-12T16:24:01.179Z,6.16
2019-02-12T16:26:01.378Z,6.16